createdAt,value
2022-10-14T00:01:07.070Z,16.09
2022-10-14T00:03:36.315Z,16.09
2022-10-14T00:06:06.394Z,16.07
2022-10-14T00:08:34.441Z,16.10
2022-10-14T00:11:07.602Z,16.08
2022-10-14T00:13:36.083Z,16.11
2022-10-14T00:16:05.384Z,15.99
2022-10-14T00:18:33.714Z,15.99
2022-10-14T00:21:03.632Z,15.96
2022-10-14T00:23:31.554Z,16.00
2022-10-14T00:25:59.534Z,16.04
2022-10-14T00:28:28.907Z,16.01
2022-10-14T00:30:57.758Z,15.95
2022-10-14T00:33:26.057Z,15.96
2022-10-14T00:35:58.927Z,15.94
2022-10-14T00:38:27.300Z,15.88
2022-10-14T00:40:58.592Z,15.87
2022-10-14T00:43:29.849Z,15.92
2022-10-14T00:45:57.712Z,15.93
2022-10-14T00:48:27.584Z,15.94
2022-10-14T00:50:58.059Z,15.98
2022-10-14T00:53:26.195Z,15.99
2022-10-14T00:55:54.061Z,16.04
2022-10-14T00:58:22.243Z,15.94
2022-10-14T01:00:51.863Z,15.91
2022-10-14T01:03:22.325Z,15.94
2022-10-14T01:05:57.753Z,15.91
2022-10-14T01:08:32.087Z,15.90
2022-10-14T01:11:08.850Z,15.90
2022-10-14T01:13:39.992Z,15.91
2022-10-14T01:16:19.458Z,15.88
2022-10-14T01:18:59.865Z,15.95
2022-10-14T01:21:33.616Z,16.01
2022-10-14T01:24:33.604Z,16.06
2022-10-14T01:27:20.982Z,16.00
2022-10-14T01:30:02.552Z,16.04
2022-10-14T01:32:33.192Z,15.99
2022-10-14T01:35:09.803Z,15.94
2022-10-14T01:37:44.175Z,15.86
2022-10-14T01:40:18.787Z,15.82
2022-10-14T01:42:48.747Z,15.79
2022-10-14T01:45:22.149Z,15.72
2022-10-14T01:47:52.492Z,15.73
2022-10-14T01:50:25.118Z,15.77
2022-10-14T01:52:57.282Z,15.82
2022-10-14T01:55:29.321Z,15.84
2022-10-14T01:57:58.747Z,15.87
2022-10-14T02:00:28.031Z,15.79
2022-10-14T02:02:55.950Z,15.78
2022-10-14T02:05:29.938Z,15.82
2022-10-14T02:08:05.507Z,15.79
2022-10-14T02:10:52.652Z,15.80
2022-10-14T02:13:35.902Z,15.78
2022-10-14T02:16:15.704Z,15.81
2022-10-14T02:18:52.547Z,15.82
2022-10-14T02:21:25.665Z,15.86
2022-10-14T02:23:58.914Z,15.88
2022-10-14T02:26:28.137Z,15.95
2022-10-14T02:29:00.960Z,15.98
2022-10-14T02:31:32.470Z,15.98
2022-10-14T02:34:04.193Z,15.97
2022-10-14T02:36:33.918Z,15.98
2022-10-14T02:39:03.042Z,15.96
2022-10-14T02:41:36.164Z,16.01
2022-10-14T02:44:06.140Z,16.03
2022-10-14T02:46:36.408Z,15.99
2022-10-14T02:49:04.357Z,16.00
2022-10-14T02:51:32.177Z,16.00
2022-10-14T02:54:01.706Z,15.94
2022-10-14T02:56:30.393Z,15.99
2022-10-14T02:58:58.244Z,15.99
2022-10-14T03:01:26.333Z,16.00
2022-10-14T03:03:58.352Z,16.00
2022-10-14T03:06:26.425Z,15.99
2022-10-14T03:08:54.244Z,16.00
2022-10-14T03:11:22.186Z,15.96
2022-10-14T03:13:50.145Z,15.92
2022-10-14T03:16:18.009Z,15.91
2022-10-14T03:18:45.912Z,15.91
2022-10-14T03:21:15.281Z,15.93
2022-10-14T03:23:43.124Z,15.96
2022-10-14T03:26:14.042Z,15.92
2022-10-14T03:28:42.381Z,15.90
2022-10-14T03:31:10.310Z,15.90
2022-10-14T03:33:38.283Z,15.90
2022-10-14T03:36:06.614Z,15.88
2022-10-14T03:38:35.878Z,15.88
2022-10-14T03:41:03.822Z,15.96
2022-10-14T03:43:31.966Z,15.96
2022-10-14T03:45:59.832Z,15.97
2022-10-14T03:48:27.762Z,16.00
2022-10-14T03:50:55.759Z,16.00
2022-10-14T03:53:23.634Z,16.03
2022-10-14T03:55:53.050Z,16.06
2022-10-14T03:58:21.004Z,16.05
2022-10-14T04:00:48.926Z,16.05
2022-10-14T04:03:16.780Z,16.03
2022-10-14T04:05:44.926Z,16.00
2022-10-14T04:08:12.987Z,16.02
2022-10-14T04:10:40.959Z,16.02
2022-10-14T04:13:10.374Z,15.99
2022-10-14T04:15:38.795Z,15.98
2022-10-14T04:18:06.763Z,15.98
2022-10-14T04:20:34.634Z,16.00
2022-10-14T04:23:02.600Z,15.94
2022-10-14T04:25:30.668Z,15.93
2022-10-14T04:27:58.657Z,15.96
2022-10-14T04:30:27.847Z,16.02
2022-10-14T04:32:55.853Z,16.05
2022-10-14T04:35:24.002Z,16.04
2022-10-14T04:37:51.872Z,15.98
2022-10-14T04:40:20.553Z,15.94
2022-10-14T04:42:48.602Z,15.93
2022-10-14T04:45:16.562Z,15.85
2022-10-14T04:47:48.622Z,15.80
2022-10-14T04:50:16.963Z,15.82
2022-10-14T04:52:44.827Z,15.80
2022-10-14T04:55:13.315Z,15.77
2022-10-14T04:57:43.965Z,15.78
2022-10-14T05:00:13.992Z,15.78
2022-10-14T05:02:41.964Z,15.78
2022-10-14T05:05:11.895Z,15.78
2022-10-14T05:07:40.345Z,15.77
2022-10-14T05:10:10.362Z,15.76
2022-10-14T05:12:39.635Z,15.73
2022-10-14T05:15:18.944Z,15.71
2022-10-14T05:17:50.146Z,15.65
2022-10-14T05:20:21.036Z,15.64
2022-10-14T05:22:49.035Z,15.65
2022-10-14T05:25:17.269Z,15.65
2022-10-14T05:27:45.375Z,15.65
2022-10-14T05:30:14.481Z,15.66
2022-10-14T05:32:42.572Z,15.67
2022-10-14T05:35:10.879Z,15.65
2022-10-14T05:37:41.478Z,15.70
2022-10-14T05:40:11.341Z,15.65
2022-10-14T05:42:39.546Z,15.68
2022-10-14T05:45:08.072Z,15.67
2022-10-14T05:47:36.100Z,15.70
2022-10-14T05:50:04.563Z,15.68
2022-10-14T05:52:35.851Z,15.67
2022-10-14T05:55:05.882Z,15.71
2022-10-14T05:57:34.154Z,15.66
2022-10-14T06:00:02.093Z,15.67
2022-10-14T06:02:30.182Z,15.65
2022-10-14T06:04:58.727Z,15.69
2022-10-14T06:07:26.723Z,15.68
2022-10-14T06:09:54.644Z,15.65
2022-10-14T06:12:24.245Z,15.66
2022-10-14T06:14:52.255Z,15.69
2022-10-14T06:17:20.239Z,15.68
2022-10-14T06:19:48.128Z,15.74
2022-10-14T06:22:16.051Z,15.79
2022-10-14T06:24:44.057Z,15.75
2022-10-14T06:27:11.875Z,15.73
2022-10-14T06:29:44.092Z,15.74
2022-10-14T06:32:14.739Z,15.73
2022-10-14T06:34:42.667Z,15.77
2022-10-14T06:37:10.621Z,15.79
2022-10-14T06:39:38.531Z,15.81
2022-10-14T06:42:10.724Z,15.85
2022-10-14T06:44:45.500Z,15.88
2022-10-14T06:47:13.642Z,15.87
2022-10-14T06:49:41.580Z,15.93
2022-10-14T06:52:10.065Z,15.91
2022-10-14T06:54:39.635Z,15.81
2022-10-14T06:57:08.344Z,15.87
2022-10-14T06:59:39.186Z,15.87
2022-10-14T07:02:09.871Z,15.98
2022-10-14T07:04:38.375Z,16.05
2022-10-14T07:07:07.452Z,16.09
2022-10-14T07:09:35.474Z,16.12
2022-10-14T07:12:03.476Z,16.16
2022-10-14T07:14:31.504Z,16.19
2022-10-14T07:17:00.562Z,16.20
2022-10-14T07:19:29.879Z,16.29
2022-10-14T07:21:57.884Z,16.31
2022-10-14T07:24:25.876Z,16.34
2022-10-14T07:26:54.070Z,16.35
2022-10-14T07:29:23.706Z,16.38
2022-10-14T07:31:54.603Z,16.42
2022-10-14T07:34:22.584Z,16.47
2022-10-14T07:36:55.084Z,16.49
2022-10-14T07:39:23.123Z,16.54
2022-10-14T07:41:50.987Z,16.47
2022-10-14T07:44:21.334Z,16.52
2022-10-14T07:46:53.229Z,16.43
2022-10-14T07:49:22.323Z,16.43
2022-10-14T07:51:50.361Z,16.45
2022-10-14T07:54:22.501Z,16.48
2022-10-14T07:56:50.608Z,16.46
2022-10-14T07:59:20.087Z,16.49
2022-10-14T08:01:51.311Z,16.52
2022-10-14T08:04:20.338Z,16.51
2022-10-14T08:06:57.215Z,16.51
2022-10-14T08:11:54.501Z,16.54
2022-10-14T08:14:22.475Z,16.64
2022-10-14T08:16:53.201Z,16.88
2022-10-14T08:19:21.905Z,17.07
2022-10-14T08:21:50.023Z,17.28
2022-10-14T08:24:17.921Z,17.38
2022-10-14T08:26:53.764Z,17.23
2022-10-14T08:29:23.258Z,17.64
2022-10-14T08:31:52.370Z,18.07
2022-10-14T08:34:21.269Z,18.10
2022-10-14T08:36:49.472Z,18.13
2022-10-14T08:39:19.275Z,18.10
2022-10-14T08:42:09.008Z,18.12
2022-10-14T08:44:43.134Z,18.41
2022-10-14T08:47:15.688Z,18.60
2022-10-14T08:49:54.061Z,18.53
2022-10-14T08:52:26.704Z,18.60
2022-10-14T08:54:59.884Z,18.72
2022-10-14T08:57:36.008Z,18.61
2022-10-14T09:00:05.026Z,18.41
2022-10-14T09:02:43.114Z,18.21
2022-10-14T09:05:16.233Z,17.98
2022-10-14T09:07:46.274Z,17.97
2022-10-14T09:10:30.288Z,17.94
2022-10-14T09:13:04.620Z,17.74
2022-10-14T09:15:38.341Z,17.86
2022-10-14T09:18:13.460Z,17.88
2022-10-14T09:20:42.495Z,17.79
2022-10-14T09:23:17.231Z,17.69
2022-10-14T09:25:55.263Z,17.64
2022-10-14T09:28:33.221Z,17.61
2022-10-14T09:31:01.498Z,17.80
2022-10-14T09:33:30.488Z,17.94
2022-10-14T09:38:34.585Z,17.93
2022-10-14T09:41:03.047Z,17.93
2022-10-14T09:43:32.406Z,17.99
2022-10-14T09:46:03.164Z,18.14
2022-10-14T09:48:34.365Z,18.11
2022-10-14T09:51:04.386Z,17.87
2022-10-14T09:53:37.991Z,17.75
2022-10-14T09:56:08.189Z,17.72
2022-10-14T09:58:44.517Z,17.87
2022-10-14T10:01:17.243Z,17.92
2022-10-14T10:03:46.045Z,18.06
2022-10-14T10:06:16.972Z,18.18
2022-10-14T10:08:58.275Z,18.13
2022-10-14T10:11:30.349Z,18.15
2022-10-14T10:14:16.691Z,18.03
2022-10-14T10:16:44.747Z,18.17
2022-10-14T10:19:28.154Z,18.25
2022-10-14T10:21:56.239Z,18.05
2022-10-14T10:24:27.478Z,18.01
2022-10-14T10:26:58.320Z,18.07
2022-10-14T10:29:35.572Z,17.96
2022-10-14T10:32:15.415Z,17.99
2022-10-14T10:35:09.503Z,18.10
2022-10-14T10:37:46.620Z,18.30
2022-10-14T10:40:33.049Z,18.33
2022-10-14T10:43:22.921Z,18.35
2022-10-14T10:46:04.465Z,18.40
2022-10-14T10:48:41.271Z,18.33
2022-10-14T10:51:13.991Z,18.31
2022-10-14T10:54:14.043Z,18.33
2022-10-14T10:56:47.210Z,18.38
2022-10-14T10:59:35.511Z,18.25
2022-10-14T11:02:35.273Z,18.18
2022-10-14T11:05:10.773Z,18.24
2022-10-14T11:08:03.671Z,18.32
2022-10-14T11:10:54.443Z,18.20
2022-10-14T11:13:32.276Z,18.25
2022-10-14T11:16:07.674Z,18.45
2022-10-14T11:18:46.451Z,18.62
2022-10-14T11:21:22.027Z,18.81
2022-10-14T11:23:59.950Z,18.58
2022-10-14T11:26:48.053Z,18.55
2022-10-14T11:29:31.508Z,18.29
2022-10-14T11:32:09.439Z,18.40
2022-10-14T11:34:48.901Z,18.32
2022-10-14T11:37:29.961Z,18.31
2022-10-14T11:40:00.274Z,18.25
2022-10-14T11:42:38.804Z,18.09
2022-10-14T11:45:24.417Z,17.92
2022-10-14T11:47:56.127Z,17.85
2022-10-14T11:50:30.230Z,17.66
2022-10-14T11:53:03.116Z,17.72
2022-10-14T11:55:36.001Z,17.71
2022-10-14T11:58:08.005Z,17.66
2022-10-14T12:00:55.626Z,17.76
2022-10-14T12:03:35.949Z,17.67
2022-10-14T12:06:12.325Z,17.72
2022-10-14T12:08:51.973Z,17.94
2022-10-14T12:11:29.059Z,18.09
2022-10-14T12:14:06.071Z,18.09
2022-10-14T12:16:34.478Z,18.08
2022-10-14T12:19:02.662Z,18.05
2022-10-14T12:21:38.786Z,18.00
2022-10-14T12:24:14.386Z,17.96
2022-10-14T12:26:52.368Z,17.91
2022-10-14T12:29:23.824Z,17.82
2022-10-14T12:32:07.727Z,17.79
2022-10-14T12:34:37.900Z,17.67
2022-10-14T12:37:52.236Z,17.70
2022-10-14T12:40:31.886Z,17.73
2022-10-14T12:43:24.636Z,17.76
2022-10-14T12:46:20.246Z,17.67
2022-10-14T12:48:52.897Z,17.60
2022-10-14T12:51:23.653Z,17.70
2022-10-14T12:54:05.126Z,17.72
2022-10-14T12:56:38.888Z,17.68
2022-10-14T12:59:10.020Z,17.71
2022-10-14T13:01:38.589Z,17.85
2022-10-14T13:04:08.977Z,17.79
2022-10-14T13:06:40.117Z,17.90
2022-10-14T13:09:32.653Z,18.15
2022-10-14T13:12:42.358Z,18.20
2022-10-14T13:15:49.706Z,18.05
2022-10-14T13:18:52.825Z,18.08
2022-10-14T13:21:52.655Z,18.08
2022-10-14T13:24:28.150Z,17.98
2022-10-14T13:27:14.891Z,17.96
2022-10-14T13:30:01.753Z,17.72
2022-10-14T13:32:39.633Z,17.78
2022-10-14T13:35:18.900Z,17.79
2022-10-14T13:37:54.469Z,17.77
2022-10-14T13:40:27.308Z,17.76
2022-10-14T13:42:58.856Z,17.78
2022-10-14T13:45:35.935Z,17.87
2022-10-14T13:48:13.882Z,17.91
2022-10-14T13:50:43.397Z,17.93
2022-10-14T13:53:17.832Z,17.87
2022-10-14T13:55:51.536Z,17.89
2022-10-14T13:58:24.709Z,17.92
2022-10-14T14:01:03.948Z,17.93
2022-10-14T14:03:36.848Z,17.93
2022-10-14T14:06:11.509Z,17.87
2022-10-14T14:08:50.308Z,17.97
2022-10-14T14:11:20.848Z,17.96
2022-10-14T14:14:00.310Z,18.03
2022-10-14T14:16:33.269Z,18.01
2022-10-14T14:19:08.692Z,18.10
2022-10-14T14:21:37.320Z,18.00
2022-10-14T14:24:17.715Z,18.01
2022-10-14T14:26:45.916Z,18.01
2022-10-14T14:29:18.427Z,18.01
2022-10-14T14:32:05.395Z,18.01
2022-10-14T14:34:37.181Z,17.94
2022-10-14T14:37:25.135Z,17.94
2022-10-14T14:40:01.665Z,17.91
2022-10-14T14:42:33.569Z,17.92
2022-10-14T14:45:05.925Z,17.94
2022-10-14T14:47:34.875Z,18.01
2022-10-14T14:52:53.620Z,17.95
2022-10-14T14:55:42.051Z,17.88
2022-10-14T14:58:24.510Z,17.76
2022-10-14T15:00:54.716Z,17.77
2022-10-14T15:03:24.264Z,17.80
2022-10-14T15:05:57.338Z,17.78
2022-10-14T15:08:27.567Z,17.77
2022-10-14T15:10:58.070Z,17.75
2022-10-14T15:13:29.969Z,17.69
2022-10-14T15:15:57.957Z,17.62
2022-10-14T15:18:28.045Z,17.66
2022-10-14T15:21:14.981Z,17.69
2022-10-14T15:23:47.037Z,17.71
2022-10-14T15:26:26.351Z,17.67
2022-10-14T15:29:14.393Z,17.59
2022-10-14T15:31:44.248Z,17.48
2022-10-14T15:34:20.404Z,17.45
2022-10-14T15:36:52.709Z,17.37
2022-10-14T15:39:21.280Z,17.39
2022-10-14T15:41:49.250Z,17.35
2022-10-14T15:44:17.821Z,17.35
2022-10-14T15:47:04.621Z,17.36
2022-10-14T15:49:34.642Z,17.27
2022-10-14T15:52:04.582Z,17.27
2022-10-14T15:54:32.582Z,17.25
2022-10-14T15:57:00.929Z,17.24
2022-10-14T15:59:29.020Z,17.19
2022-10-14T16:01:56.968Z,17.18
2022-10-14T16:04:28.043Z,17.27
2022-10-14T16:06:57.712Z,17.22
2022-10-14T16:09:28.781Z,17.19
2022-10-14T16:11:59.836Z,17.16
2022-10-14T16:14:28.535Z,17.24
2022-10-14T16:16:56.434Z,17.23
2022-10-14T16:19:24.373Z,17.25
2022-10-14T16:21:52.344Z,17.25
2022-10-14T16:24:22.220Z,17.24
2022-10-14T16:26:51.581Z,17.24
2022-10-14T16:29:20.983Z,17.23
2022-10-14T16:31:50.118Z,17.26
2022-10-14T16:34:18.564Z,17.25
2022-10-14T16:36:46.715Z,17.16
2022-10-14T16:39:14.678Z,17.10
2022-10-14T16:41:43.092Z,17.13
2022-10-14T16:44:24.831Z,17.18
2022-10-14T16:47:10.735Z,17.16
2022-10-14T16:49:39.213Z,17.16
2022-10-14T16:52:07.405Z,17.07
2022-10-14T16:54:35.477Z,17.25
2022-10-14T16:57:03.551Z,17.23
2022-10-14T16:59:33.861Z,17.20
2022-10-14T17:02:02.212Z,16.99
2022-10-14T17:04:30.190Z,16.89
2022-10-14T17:06:58.136Z,16.89
2022-10-14T17:09:26.196Z,16.90
2022-10-14T17:11:54.931Z,16.88
2022-10-14T17:14:24.313Z,16.90
2022-10-14T17:16:53.637Z,16.82
2022-10-14T17:19:24.150Z,16.84
2022-10-14T17:21:52.078Z,16.84
2022-10-14T17:24:19.988Z,16.88
2022-10-14T17:26:47.862Z,16.85
2022-10-14T17:29:16.063Z,16.79
2022-10-14T17:31:44.830Z,16.86
2022-10-14T17:34:14.143Z,16.83
2022-10-14T17:36:42.143Z,16.87
2022-10-14T17:39:21.304Z,16.81
2022-10-14T17:41:55.451Z,16.87
2022-10-14T17:44:23.704Z,16.88
2022-10-14T17:46:51.707Z,16.89
2022-10-14T17:49:21.297Z,16.80
2022-10-14T17:51:52.715Z,16.77
2022-10-14T17:54:20.865Z,16.84
2022-10-14T17:56:48.785Z,16.86
2022-10-14T17:59:16.752Z,16.77
2022-10-14T18:04:35.523Z,16.75
2022-10-14T18:07:06.468Z,16.80
2022-10-14T18:09:35.174Z,16.78
2022-10-14T18:12:08.765Z,16.80
2022-10-14T18:14:37.465Z,16.82
2022-10-14T18:17:05.945Z,16.82
2022-10-14T18:19:35.264Z,16.80
2022-10-14T18:22:03.426Z,16.70
2022-10-14T18:24:31.469Z,16.75
2022-10-14T18:26:59.360Z,16.76
2022-10-14T18:29:27.714Z,16.66
2022-10-14T18:31:56.245Z,16.56
2022-10-14T18:34:25.567Z,16.56
2022-10-14T18:36:55.129Z,16.57
2022-10-14T18:39:23.211Z,16.58
2022-10-14T18:41:51.092Z,16.57
2022-10-14T18:44:22.281Z,16.51
2022-10-14T18:46:50.582Z,16.52
2022-10-14T18:49:18.650Z,16.54
2022-10-14T18:51:47.098Z,16.60
2022-10-14T18:54:18.070Z,16.69
2022-10-14T18:56:48.107Z,16.69
2022-10-14T18:59:19.396Z,16.76
2022-10-14T19:01:48.624Z,16.78
2022-10-14T19:04:17.312Z,16.80
2022-10-14T19:06:47.244Z,16.84
2022-10-14T19:09:18.613Z,16.89
2022-10-14T19:11:47.901Z,16.94
2022-10-14T19:14:15.725Z,16.92
2022-10-14T19:16:44.486Z,16.84
2022-10-14T19:19:15.283Z,16.83
2022-10-14T19:21:43.911Z,16.76
2022-10-14T19:24:13.672Z,16.72
2022-10-14T19:26:45.392Z,16.75
2022-10-14T19:29:15.304Z,16.71
2022-10-14T19:31:44.536Z,16.64
2022-10-14T19:34:14.715Z,16.57
2022-10-14T19:36:43.781Z,16.54
2022-10-14T19:39:15.096Z,16.54
2022-10-14T19:41:46.432Z,16.50
2022-10-14T19:44:16.081Z,16.49
2022-10-14T19:46:44.741Z,16.48
2022-10-14T19:49:15.321Z,16.49
2022-10-14T19:51:44.418Z,16.49
2022-10-14T19:54:13.692Z,16.49
2022-10-14T19:56:42.284Z,16.44
2022-10-14T19:59:14.125Z,16.44
2022-10-14T20:01:42.232Z,16.50
2022-10-14T20:04:10.141Z,16.51
2022-10-14T20:06:42.847Z,16.54
2022-10-14T20:09:14.583Z,16.51
2022-10-14T20:11:42.971Z,16.47
2022-10-14T20:14:14.487Z,16.46
2022-10-14T20:16:43.492Z,16.46
2022-10-14T20:19:12.153Z,16.48
2022-10-14T20:21:40.836Z,16.47
2022-10-14T20:24:09.263Z,16.39
2022-10-14T20:26:37.765Z,16.38
2022-10-14T20:29:05.709Z,16.37
2022-10-14T20:31:35.087Z,16.39
2022-10-14T20:34:08.692Z,16.37
2022-10-14T20:36:39.364Z,16.38
2022-10-14T20:39:07.320Z,16.43
2022-10-14T20:41:35.533Z,16.42
2022-10-14T20:44:03.535Z,16.43
2022-10-14T20:46:31.607Z,16.43
2022-10-14T20:49:00.906Z,16.43
2022-10-14T20:51:29.164Z,16.46
2022-10-14T20:54:02.658Z,16.46
2022-10-14T20:56:33.511Z,16.42
2022-10-14T20:59:04.526Z,16.46
2022-10-14T21:01:34.056Z,16.45
2022-10-14T21:04:05.302Z,16.46
2022-10-14T21:06:33.217Z,16.45
2022-10-14T21:09:01.576Z,16.42
2022-10-14T21:11:29.577Z,16.41
2022-10-14T21:13:59.069Z,16.36
2022-10-14T21:16:28.461Z,16.35
2022-10-14T21:18:59.135Z,16.37
2022-10-14T21:21:30.384Z,16.42
2022-10-14T21:23:59.805Z,16.42
2022-10-14T21:26:28.586Z,16.42
2022-10-14T21:28:56.803Z,16.40
2022-10-14T21:31:25.046Z,16.42
2022-10-14T21:34:01.122Z,16.43
2022-10-14T21:36:34.444Z,16.40
2022-10-14T21:39:06.848Z,16.37
2022-10-14T21:41:35.839Z,16.37
2022-10-14T21:44:04.245Z,16.39
2022-10-14T21:46:32.280Z,16.41
2022-10-14T21:49:00.396Z,16.40
2022-10-14T21:51:31.003Z,16.38
2022-10-14T21:54:00.589Z,16.37
2022-10-14T21:56:29.070Z,16.37
2022-10-14T21:58:57.031Z,16.37
2022-10-14T22:01:27.498Z,16.36
2022-10-14T22:03:56.455Z,16.35
2022-10-14T22:06:25.141Z,16.34
2022-10-14T22:08:56.651Z,16.35
2022-10-14T22:11:27.840Z,16.37
2022-10-14T22:13:57.490Z,16.37
2022-10-14T22:16:26.759Z,16.36
2022-10-14T22:18:54.774Z,16.36
2022-10-14T22:21:25.551Z,16.41
2022-10-14T22:23:53.941Z,16.43
2022-10-14T22:26:24.761Z,16.41
2022-10-14T22:29:00.602Z,16.43
2022-10-14T22:31:30.290Z,16.46
2022-10-14T22:33:59.705Z,16.49
2022-10-14T22:36:29.350Z,16.52
2022-10-14T22:38:58.887Z,16.47
2022-10-14T22:41:30.951Z,16.51
2022-10-14T22:44:04.078Z,16.52
2022-10-14T22:46:33.471Z,16.54
2022-10-14T22:49:02.095Z,16.51
2022-10-14T22:51:31.879Z,16.56
2022-10-14T22:54:00.359Z,16.56
2022-10-14T22:56:30.593Z,16.57
2022-10-14T22:58:59.652Z,16.50
2022-10-14T23:01:29.378Z,16.51
2022-10-14T23:03:58.634Z,16.55
2022-10-14T23:06:27.142Z,16.59
2022-10-14T23:08:55.486Z,16.59
2022-10-14T23:11:25.780Z,16.61
2022-10-14T23:13:54.600Z,16.62
2022-10-14T23:16:24.344Z,16.52
2022-10-14T23:18:54.770Z,16.59
2022-10-14T23:21:24.448Z,16.59
2022-10-14T23:23:53.730Z,16.64
2022-10-14T23:26:23.271Z,16.64
2022-10-14T23:28:52.671Z,16.65
2022-10-14T23:31:22.601Z,16.66
2022-10-14T23:33:52.266Z,16.68
2022-10-14T23:36:23.258Z,16.69
2022-10-14T23:38:52.542Z,16.73
2022-10-14T23:41:22.911Z,16.73
2022-10-14T23:43:52.134Z,16.68
2022-10-14T23:46:21.178Z,16.69
2022-10-14T23:49:00.708Z,16.69
2022-10-14T23:51:37.411Z,16.72
2022-10-14T23:54:05.956Z,16.73
2022-10-14T23:56:33.983Z,16.74
2022-10-14T23:59:02.215Z,16.79
